sensor_id;sensor_type;location;lat;lon;timestamp;temperature;humidity
52656;SHT85;35474;51.032;6.998;2022-08-02T00:00:07;17.53;79.55
52656;SHT85;35474;51.032;6.998;2022-08-02T00:02:34;17.51;79.67
52656;SHT85;35474;51.032;6.998;2022-08-02T00:05:01;17.46;79.74
52656;SHT85;35474;51.032;6.998;2022-08-02T00:07:27;17.43;79.71
52656;SHT85;35474;51.032;6.998;2022-08-02T00:09:54;17.47;80.09
52656;SHT85;35474;51.032;6.998;2022-08-02T00:12:21;17.53;79.85
52656;SHT85;35474;51.032;6.998;2022-08-02T00:14:47;17.59;79.49
52656;SHT85;35474;51.032;6.998;2022-08-02T00:17:14;17.50;79.84
52656;SHT85;35474;51.032;6.998;2022-08-02T00:19:40;17.46;79.82
52656;SHT85;35474;51.032;6.998;2022-08-02T00:22:07;17.61;79.66
52656;SHT85;35474;51.032;6.998;2022-08-02T00:24:34;17.77;79.01
52656;SHT85;35474;51.032;6.998;2022-08-02T00:27:01;17.54;79.90
52656;SHT85;35474;51.032;6.998;2022-08-02T00:29:35;17.50;79.82
52656;SHT85;35474;51.032;6.998;2022-08-02T00:32:17;17.46;79.87
52656;SHT85;35474;51.032;6.998;2022-08-02T00:34:43;17.43;80.32
52656;SHT85;35474;51.032;6.998;2022-08-02T00:37:10;17.43;80.35
52656;SHT85;35474;51.032;6.998;2022-08-02T00:39:36;17.33;80.67
52656;SHT85;35474;51.032;6.998;2022-08-02T00:42:03;17.30;80.97
52656;SHT85;35474;51.032;6.998;2022-08-02T00:44:30;17.19;81.36
52656;SHT85;35474;51.032;6.998;2022-08-02T00:46:57;17.14;81.44
52656;SHT85;35474;51.032;6.998;2022-08-02T00:49:23;17.16;81.41
52656;SHT85;35474;51.032;6.998;2022-08-02T00:51:50;17.09;81.86
52656;SHT85;35474;51.032;6.998;2022-08-02T00:54:18;17.03;81.99
52656;SHT85;35474;51.032;6.998;2022-08-02T00:56:44;16.85;82.34
52656;SHT85;35474;51.032;6.998;2022-08-02T00:59:16;16.83;82.86
52656;SHT85;35474;51.032;6.998;2022-08-02T01:01:43;16.78;82.98
52656;SHT85;35474;51.032;6.998;2022-08-02T01:04:24;16.80;82.85
52656;SHT85;35474;51.032;6.998;2022-08-02T01:06:58;16.79;82.69
52656;SHT85;35474;51.032;6.998;2022-08-02T01:09:26;16.79;82.78
52656;SHT85;35474;51.032;6.998;2022-08-02T01:11:53;16.69;82.96
52656;SHT85;35474;51.032;6.998;2022-08-02T01:14:20;16.71;83.02
52656;SHT85;35474;51.032;6.998;2022-08-02T01:16:51;16.71;82.81
52656;SHT85;35474;51.032;6.998;2022-08-02T01:19:33;16.82;82.62
52656;SHT85;35474;51.032;6.998;2022-08-02T01:36:39;16.68;82.78
52656;SHT85;35474;51.032;6.998;2022-08-02T01:39:08;16.67;82.80
52656;SHT85;35474;51.032;6.998;2022-08-02T01:41:57;16.73;83.02
52656;SHT85;35474;51.032;6.998;2022-08-02T01:44:25;16.61;83.11
52656;SHT85;35474;51.032;6.998;2022-08-02T01:46:56;16.59;83.33
52656;SHT85;35474;51.032;6.998;2022-08-02T01:49:26;16.59;83.34
52656;SHT85;35474;51.032;6.998;2022-08-02T01:51:56;16.67;83.14
52656;SHT85;35474;51.032;6.998;2022-08-02T01:54:44;16.62;83.14
52656;SHT85;35474;51.032;6.998;2022-08-02T01:57:14;16.49;83.34
52656;SHT85;35474;51.032;6.998;2022-08-02T01:59:42;16.51;83.46
52656;SHT85;35474;51.032;6.998;2022-08-02T02:02:09;16.55;83.30
52656;SHT85;35474;51.032;6.998;2022-08-02T02:04:40;16.58;83.43
52656;SHT85;35474;51.032;6.998;2022-08-02T02:07:09;16.52;83.59
52656;SHT85;35474;51.032;6.998;2022-08-02T02:09:39;16.35;84.13
52656;SHT85;35474;51.032;6.998;2022-08-02T02:12:16;16.37;84.18
52656;SHT85;35474;51.032;6.998;2022-08-02T02:14:45;16.57;83.56
52656;SHT85;35474;51.032;6.998;2022-08-02T02:17:17;16.51;83.42
52656;SHT85;35474;51.032;6.998;2022-08-02T02:20:07;16.45;83.91
52656;SHT85;35474;51.032;6.998;2022-08-02T02:22:38;16.41;84.01
52656;SHT85;35474;51.032;6.998;2022-08-02T02:25:05;16.37;84.20
52656;SHT85;35474;51.032;6.998;2022-08-02T02:27:36;16.31;84.40
52656;SHT85;35474;51.032;6.998;2022-08-02T02:30:09;16.27;84.61
52656;SHT85;35474;51.032;6.998;2022-08-02T02:32:37;16.21;84.92
52656;SHT85;35474;51.032;6.998;2022-08-02T02:35:06;16.22;84.91
52656;SHT85;35474;51.032;6.998;2022-08-02T02:37:35;16.28;84.77
52656;SHT85;35474;51.032;6.998;2022-08-02T02:40:04;16.42;84.41
52656;SHT85;35474;51.032;6.998;2022-08-02T02:42:32;16.35;84.41
52656;SHT85;35474;51.032;6.998;2022-08-02T02:44:59;16.41;83.95
52656;SHT85;35474;51.032;6.998;2022-08-02T02:47:28;16.31;84.29
52656;SHT85;35474;51.032;6.998;2022-08-02T02:50:06;16.30;84.32
52656;SHT85;35474;51.032;6.998;2022-08-02T02:52:35;16.24;84.31
52656;SHT85;35474;51.032;6.998;2022-08-02T02:55:04;16.30;84.24
52656;SHT85;35474;51.032;6.998;2022-08-02T02:57:33;16.20;84.66
52656;SHT85;35474;51.032;6.998;2022-08-02T03:00:03;16.20;84.77
52656;SHT85;35474;51.032;6.998;2022-08-02T03:02:31;16.14;84.89
52656;SHT85;35474;51.032;6.998;2022-08-02T03:04:59;16.16;85.04
52656;SHT85;35474;51.032;6.998;2022-08-02T03:07:30;16.11;85.16
52656;SHT85;35474;51.032;6.998;2022-08-02T03:09:59;16.04;85.29
52656;SHT85;35474;51.032;6.998;2022-08-02T03:12:26;15.96;85.70
52656;SHT85;35474;51.032;6.998;2022-08-02T03:15:02;15.87;85.83
52656;SHT85;35474;51.032;6.998;2022-08-02T03:17:41;15.86;86.16
52656;SHT85;35474;51.032;6.998;2022-08-02T03:20:12;15.93;86.03
52656;SHT85;35474;51.032;6.998;2022-08-02T03:22:42;15.89;86.00
52656;SHT85;35474;51.032;6.998;2022-08-02T03:25:10;15.82;86.08
52656;SHT85;35474;51.032;6.998;2022-08-02T03:27:37;15.87;85.97
52656;SHT85;35474;51.032;6.998;2022-08-02T03:30:04;15.86;85.82
52656;SHT85;35474;51.032;6.998;2022-08-02T03:32:34;15.79;86.06
52656;SHT85;35474;51.032;6.998;2022-08-02T03:35:01;15.86;86.10
52656;SHT85;35474;51.032;6.998;2022-08-02T03:37:29;15.93;85.85
52656;SHT85;35474;51.032;6.998;2022-08-02T03:39:57;15.83;85.71
52656;SHT85;35474;51.032;6.998;2022-08-02T03:42:26;15.80;85.92
52656;SHT85;35474;51.032;6.998;2022-08-02T03:44:54;15.79;86.08
52656;SHT85;35474;51.032;6.998;2022-08-02T03:47:22;15.76;86.26
52656;SHT85;35474;51.032;6.998;2022-08-02T03:49:49;15.73;86.04
52656;SHT85;35474;51.032;6.998;2022-08-02T03:52:16;15.74;86.50
52656;SHT85;35474;51.032;6.998;2022-08-02T03:54:43;15.70;86.44
52656;SHT85;35474;51.032;6.998;2022-08-02T03:57:11;15.65;86.36
52656;SHT85;35474;51.032;6.998;2022-08-02T03:59:39;15.67;86.56
52656;SHT85;35474;51.032;6.998;2022-08-02T04:02:10;15.61;87.02
52656;SHT85;35474;51.032;6.998;2022-08-02T04:04:39;15.49;87.28
52656;SHT85;35474;51.032;6.998;2022-08-02T04:07:05;15.48;87.32
52656;SHT85;35474;51.032;6.998;2022-08-02T04:09:32;15.45;87.73
52656;SHT85;35474;51.032;6.998;2022-08-02T04:11:59;15.41;87.67
52656;SHT85;35474;51.032;6.998;2022-08-02T04:14:26;15.39;87.82
52656;SHT85;35474;51.032;6.998;2022-08-02T04:16:55;15.46;87.75
52656;SHT85;35474;51.032;6.998;2022-08-02T04:19:31;15.46;87.68
52656;SHT85;35474;51.032;6.998;2022-08-02T04:22:46;15.48;87.68
52656;SHT85;35474;51.032;6.998;2022-08-02T04:25:16;15.53;87.36
52656;SHT85;35474;51.032;6.998;2022-08-02T04:27:59;15.55;87.12
52656;SHT85;35474;51.032;6.998;2022-08-02T04:30:47;15.76;87.09
52656;SHT85;35474;51.032;6.998;2022-08-02T04:33:16;15.70;86.57
52656;SHT85;35474;51.032;6.998;2022-08-02T04:35:43;15.83;86.32
52656;SHT85;35474;51.032;6.998;2022-08-02T04:38:14;15.86;86.19
52656;SHT85;35474;51.032;6.998;2022-08-02T04:40:48;15.90;85.95
52656;SHT85;35474;51.032;6.998;2022-08-02T04:43:17;15.97;86.00
52656;SHT85;35474;51.032;6.998;2022-08-02T04:45:43;15.86;85.71
52656;SHT85;35474;51.032;6.998;2022-08-02T04:48:10;15.87;85.90
52656;SHT85;35474;51.032;6.998;2022-08-02T04:50:37;15.99;85.71
52656;SHT85;35474;51.032;6.998;2022-08-02T04:53:04;15.94;85.57
52656;SHT85;35474;51.032;6.998;2022-08-02T04:55:30;15.99;85.83
52656;SHT85;35474;51.032;6.998;2022-08-02T04:57:57;16.07;85.30
52656;SHT85;35474;51.032;6.998;2022-08-02T05:00:25;16.13;84.98
52656;SHT85;35474;51.032;6.998;2022-08-02T05:02:56;16.22;84.71
52656;SHT85;35474;51.032;6.998;2022-08-02T05:05:24;16.24;84.78
52656;SHT85;35474;51.032;6.998;2022-08-02T05:07:51;16.28;84.31
52656;SHT85;35474;51.032;6.998;2022-08-02T05:10:18;16.27;84.45
52656;SHT85;35474;51.032;6.998;2022-08-02T05:12:45;16.28;84.40
52656;SHT85;35474;51.032;6.998;2022-08-02T05:15:11;16.38;84.11
52656;SHT85;35474;51.032;6.998;2022-08-02T05:17:41;16.48;83.68
52656;SHT85;35474;51.032;6.998;2022-08-02T05:20:14;16.45;83.74
52656;SHT85;35474;51.032;6.998;2022-08-02T05:22:42;16.52;83.74
52656;SHT85;35474;51.032;6.998;2022-08-02T05:25:09;16.64;83.34
52656;SHT85;35474;51.032;6.998;2022-08-02T05:27:35;16.72;83.23
52656;SHT85;35474;51.032;6.998;2022-08-02T05:30:03;16.75;82.91
52656;SHT85;35474;51.032;6.998;2022-08-02T05:32:30;16.75;82.82
52656;SHT85;35474;51.032;6.998;2022-08-02T05:34:58;16.90;82.47
52656;SHT85;35474;51.032;6.998;2022-08-02T05:37:25;16.90;82.48
52656;SHT85;35474;51.032;6.998;2022-08-02T05:39:57;17.19;81.88
52656;SHT85;35474;51.032;6.998;2022-08-02T05:42:26;17.11;81.77
52656;SHT85;35474;51.032;6.998;2022-08-02T05:44:56;17.11;81.81
52656;SHT85;35474;51.032;6.998;2022-08-02T05:47:22;17.26;81.49
52656;SHT85;35474;51.032;6.998;2022-08-02T05:49:49;17.13;81.63
52656;SHT85;35474;51.032;6.998;2022-08-02T05:52:16;17.16;81.98
52656;SHT85;35474;51.032;6.998;2022-08-02T05:54:48;17.23;81.93
52656;SHT85;35474;51.032;6.998;2022-08-02T06:00:10;17.34;81.83
52656;SHT85;35474;51.032;6.998;2022-08-02T06:02:49;17.34;81.61
52656;SHT85;35474;51.032;6.998;2022-08-02T06:05:19;17.36;81.49
52656;SHT85;35474;51.032;6.998;2022-08-02T06:07:47;17.37;81.64
52656;SHT85;35474;51.032;6.998;2022-08-02T06:10:15;17.37;81.33
52656;SHT85;35474;51.032;6.998;2022-08-02T06:12:48;17.61;81.16
52656;SHT85;35474;51.032;6.998;2022-08-02T06:15:17;17.72;80.69
52656;SHT85;35474;51.032;6.998;2022-08-02T06:17:45;17.65;80.36
52656;SHT85;35474;51.032;6.998;2022-08-02T06:20:15;17.83;79.92
52656;SHT85;35474;51.032;6.998;2022-08-02T06:22:43;17.86;79.72
52656;SHT85;35474;51.032;6.998;2022-08-02T06:25:12;18.02;78.90
52656;SHT85;35474;51.032;6.998;2022-08-02T06:27:59;18.09;78.62
52656;SHT85;35474;51.032;6.998;2022-08-02T06:30:29;18.13;78.16
52656;SHT85;35474;51.032;6.998;2022-08-02T06:32:58;18.19;78.08
52656;SHT85;35474;51.032;6.998;2022-08-02T06:35:30;18.34;77.83
52656;SHT85;35474;51.032;6.998;2022-08-02T06:38:01;18.33;77.55
52656;SHT85;35474;51.032;6.998;2022-08-02T06:40:30;18.53;77.50
52656;SHT85;35474;51.032;6.998;2022-08-02T06:45:46;18.51;76.67
52656;SHT85;35474;51.032;6.998;2022-08-02T06:48:12;18.63;76.30
52656;SHT85;35474;51.032;6.998;2022-08-02T06:50:39;18.74;75.85
52656;SHT85;35474;51.032;6.998;2022-08-02T06:53:07;18.94;75.21
52656;SHT85;35474;51.032;6.998;2022-08-02T06:55:34;19.05;74.81
52656;SHT85;35474;51.032;6.998;2022-08-02T06:58:09;19.05;74.21
52656;SHT85;35474;51.032;6.998;2022-08-02T07:00:37;19.16;74.44
52656;SHT85;35474;51.032;6.998;2022-08-02T07:03:03;19.11;74.17
52656;SHT85;35474;51.032;6.998;2022-08-02T07:05:30;19.32;73.97
52656;SHT85;35474;51.032;6.998;2022-08-02T07:07:57;19.46;72.76
52656;SHT85;35474;51.032;6.998;2022-08-02T07:10:23;19.64;72.60
52656;SHT85;35474;51.032;6.998;2022-08-02T07:12:50;19.80;72.00
52656;SHT85;35474;51.032;6.998;2022-08-02T07:15:17;19.64;72.19
52656;SHT85;35474;51.032;6.998;2022-08-02T07:17:43;19.97;71.47
52656;SHT85;35474;51.032;6.998;2022-08-02T07:20:10;20.07;71.23
52656;SHT85;35474;51.032;6.998;2022-08-02T07:22:38;20.26;70.35
52656;SHT85;35474;51.032;6.998;2022-08-02T07:25:05;20.22;69.97
52656;SHT85;35474;51.032;6.998;2022-08-02T07:27:32;20.25;69.77
52656;SHT85;35474;51.032;6.998;2022-08-02T07:29:59;20.31;69.25
52656;SHT85;35474;51.032;6.998;2022-08-02T07:32:27;20.42;69.23
52656;SHT85;35474;51.032;6.998;2022-08-02T07:34:56;20.51;68.83
52656;SHT85;35474;51.032;6.998;2022-08-02T07:37:24;20.79;68.48
52656;SHT85;35474;51.032;6.998;2022-08-02T07:40:12;20.90;67.45
52656;SHT85;35474;51.032;6.998;2022-08-02T07:42:44;21.11;66.35
52656;SHT85;35474;51.032;6.998;2022-08-02T07:45:12;21.13;66.48
52656;SHT85;35474;51.032;6.998;2022-08-02T07:47:39;20.94;66.30
52656;SHT85;35474;51.032;6.998;2022-08-02T07:50:07;21.17;65.87
52656;SHT85;35474;51.032;6.998;2022-08-02T07:52:35;21.55;65.45
52656;SHT85;35474;51.032;6.998;2022-08-02T07:55:02;21.52;65.22
52656;SHT85;35474;51.032;6.998;2022-08-02T07:57:29;21.48;64.74
52656;SHT85;35474;51.032;6.998;2022-08-02T07:59:56;21.57;64.34
52656;SHT85;35474;51.032;6.998;2022-08-02T08:02:22;21.64;63.88
52656;SHT85;35474;51.032;6.998;2022-08-02T08:04:50;21.75;63.43
52656;SHT85;35474;51.032;6.998;2022-08-02T08:07:17;22.13;62.49
52656;SHT85;35474;51.032;6.998;2022-08-02T08:09:43;22.78;60.86
52656;SHT85;35474;51.032;6.998;2022-08-02T08:12:12;23.34;58.83
52656;SHT85;35474;51.032;6.998;2022-08-02T08:14:42;23.26;58.30
52656;SHT85;35474;51.032;6.998;2022-08-02T08:17:09;24.47;54.97
52656;SHT85;35474;51.032;6.998;2022-08-02T08:19:36;24.16;55.13
52656;SHT85;35474;51.032;6.998;2022-08-02T08:22:16;24.58;54.35
52656;SHT85;35474;51.032;6.998;2022-08-02T08:24:43;25.39;53.41
52656;SHT85;35474;51.032;6.998;2022-08-02T08:27:10;24.79;53.06
52656;SHT85;35474;51.032;6.998;2022-08-02T08:29:42;24.75;53.15
52656;SHT85;35474;51.032;6.998;2022-08-02T08:32:10;24.61;53.53
52656;SHT85;35474;51.032;6.998;2022-08-02T08:34:42;24.92;52.80
52656;SHT85;35474;51.032;6.998;2022-08-02T08:37:09;25.03;52.90
52656;SHT85;35474;51.032;6.998;2022-08-02T08:39:43;26.31;50.12
52656;SHT85;35474;51.032;6.998;2022-08-02T08:42:24;25.22;52.52
52656;SHT85;35474;51.032;6.998;2022-08-02T08:44:51;25.22;52.49
52656;SHT85;35474;51.032;6.998;2022-08-02T08:47:19;25.94;50.66
52656;SHT85;35474;51.032;6.998;2022-08-02T08:49:47;26.83;49.06
52656;SHT85;35474;51.032;6.998;2022-08-02T08:52:19;26.02;51.19
52656;SHT85;35474;51.032;6.998;2022-08-02T08:54:49;26.60;50.21
52656;SHT85;35474;51.032;6.998;2022-08-02T08:57:16;25.74;51.32
52656;SHT85;35474;51.032;6.998;2022-08-02T08:59:45;25.22;53.12
52656;SHT85;35474;51.032;6.998;2022-08-02T09:02:12;25.73;51.66
52656;SHT85;35474;51.032;6.998;2022-08-02T09:04:48;25.89;51.22
52656;SHT85;35474;51.032;6.998;2022-08-02T09:07:20;25.41;52.79
52656;SHT85;35474;51.032;6.998;2022-08-02T09:09:48;25.92;51.45
52656;SHT85;35474;51.032;6.998;2022-08-02T09:12:15;26.42;50.52
52656;SHT85;35474;51.032;6.998;2022-08-02T09:14:43;26.16;50.77
52656;SHT85;35474;51.032;6.998;2022-08-02T09:17:15;26.35;50.10
52656;SHT85;35474;51.032;6.998;2022-08-02T09:19:42;26.15;50.84
52656;SHT85;35474;51.032;6.998;2022-08-02T09:22:12;27.78;48.04
52656;SHT85;35474;51.032;6.998;2022-08-02T09:27:12;26.83;49.22
52656;SHT85;35474;51.032;6.998;2022-08-02T09:29:47;26.86;49.73
52656;SHT85;35474;51.032;6.998;2022-08-02T09:32:46;28.03;46.53
52656;SHT85;35474;51.032;6.998;2022-08-02T09:35:28;26.93;48.84
52656;SHT85;35474;51.032;6.998;2022-08-02T09:38:20;26.52;50.36
52656;SHT85;35474;51.032;6.998;2022-08-02T09:40:46;26.73;50.72
52656;SHT85;35474;51.032;6.998;2022-08-02T09:43:13;28.17;46.76
52656;SHT85;35474;51.032;6.998;2022-08-02T09:45:41;27.68;47.78
52656;SHT85;35474;51.032;6.998;2022-08-02T09:48:08;28.52;45.23
52656;SHT85;35474;51.032;6.998;2022-08-02T09:50:35;27.58;47.48
52656;SHT85;35474;51.032;6.998;2022-08-02T09:53:03;27.45;47.90
52656;SHT85;35474;51.032;6.998;2022-08-02T09:55:30;27.79;47.78
52656;SHT85;35474;51.032;6.998;2022-08-02T09:57:57;27.96;46.70
52656;SHT85;35474;51.032;6.998;2022-08-02T10:00:23;28.26;47.10
52656;SHT85;35474;51.032;6.998;2022-08-02T10:03:10;29.57;44.47
52656;SHT85;35474;51.032;6.998;2022-08-02T10:08:21;26.69;50.11
52656;SHT85;35474;51.032;6.998;2022-08-02T10:10:48;27.81;47.66
52656;SHT85;35474;51.032;6.998;2022-08-02T10:13:32;27.23;49.16
52656;SHT85;35474;51.032;6.998;2022-08-02T10:16:00;29.54;44.46
52656;SHT85;35474;51.032;6.998;2022-08-02T10:18:28;29.11;44.44
52656;SHT85;35474;51.032;6.998;2022-08-02T10:21:32;29.98;42.25
52656;SHT85;35474;51.032;6.998;2022-08-02T10:24:06;29.15;43.98
52656;SHT85;35474;51.032;6.998;2022-08-02T10:26:35;27.92;46.32
52656;SHT85;35474;51.032;6.998;2022-08-02T10:29:04;27.57;46.73
52656;SHT85;35474;51.032;6.998;2022-08-02T10:31:37;26.91;48.26
52656;SHT85;35474;51.032;6.998;2022-08-02T10:34:27;26.90;48.18
52656;SHT85;35474;51.032;6.998;2022-08-02T10:37:00;27.30;47.82
52656;SHT85;35474;51.032;6.998;2022-08-02T10:39:36;28.08;45.74
52656;SHT85;35474;51.032;6.998;2022-08-02T10:42:04;29.59;42.52
52656;SHT85;35474;51.032;6.998;2022-08-02T10:44:31;28.43;43.36
52656;SHT85;35474;51.032;6.998;2022-08-02T10:49:53;29.20;42.29
52656;SHT85;35474;51.032;6.998;2022-08-02T10:52:22;29.08;42.61
52656;SHT85;35474;51.032;6.998;2022-08-02T10:57:24;29.05;41.94
52656;SHT85;35474;51.032;6.998;2022-08-02T10:59:56;29.32;41.24
52656;SHT85;35474;51.032;6.998;2022-08-02T11:02:34;29.40;40.78
52656;SHT85;35474;51.032;6.998;2022-08-02T11:07:40;30.17;39.26
52656;SHT85;35474;51.032;6.998;2022-08-02T11:15:45;28.45;40.87
52656;SHT85;35474;51.032;6.998;2022-08-02T11:18:14;28.30;40.88
52656;SHT85;35474;51.032;6.998;2022-08-02T11:20:40;28.12;41.43
52656;SHT85;35474;51.032;6.998;2022-08-02T11:28:59;27.94;42.64
52656;SHT85;35474;51.032;6.998;2022-08-02T11:31:28;28.71;40.96
52656;SHT85;35474;51.032;6.998;2022-08-02T11:34:04;28.29;41.58
52656;SHT85;35474;51.032;6.998;2022-08-02T11:36:44;28.54;41.21
52656;SHT85;35474;51.032;6.998;2022-08-02T11:39:13;28.77;40.93
52656;SHT85;35474;51.032;6.998;2022-08-02T11:41:41;28.91;40.30
52656;SHT85;35474;51.032;6.998;2022-08-02T11:44:13;30.14;39.07
52656;SHT85;35474;51.032;6.998;2022-08-02T11:46:40;30.62;38.06
52656;SHT85;35474;51.032;6.998;2022-08-02T11:49:11;29.54;39.43
52656;SHT85;35474;51.032;6.998;2022-08-02T11:51:52;29.15;40.95
52656;SHT85;35474;51.032;6.998;2022-08-02T11:54:34;29.40;40.27
52656;SHT85;35474;51.032;6.998;2022-08-02T11:57:12;28.70;41.32
52656;SHT85;35474;51.032;6.998;2022-08-02T11:59:47;28.89;41.09
52656;SHT85;35474;51.032;6.998;2022-08-02T12:02:15;28.65;41.65
52656;SHT85;35474;51.032;6.998;2022-08-02T12:04:50;28.64;41.79
52656;SHT85;35474;51.032;6.998;2022-08-02T12:07:27;29.07;40.81
52656;SHT85;35474;51.032;6.998;2022-08-02T12:10:04;29.25;40.97
52656;SHT85;35474;51.032;6.998;2022-08-02T12:12:32;29.49;40.50
52656;SHT85;35474;51.032;6.998;2022-08-02T12:14:59;30.13;39.46
52656;SHT85;35474;51.032;6.998;2022-08-02T12:17:26;29.29;41.11
52656;SHT85;35474;51.032;6.998;2022-08-02T12:20:13;29.18;41.46
52656;SHT85;35474;51.032;6.998;2022-08-02T12:22:39;29.32;40.59
52656;SHT85;35474;51.032;6.998;2022-08-02T12:25:14;29.57;40.79
52656;SHT85;35474;51.032;6.998;2022-08-02T12:28:19;29.11;41.51
52656;SHT85;35474;51.032;6.998;2022-08-02T12:30:54;28.23;42.82
52656;SHT85;35474;51.032;6.998;2022-08-02T12:33:26;28.08;43.68
52656;SHT85;35474;51.032;6.998;2022-08-02T12:35:55;28.16;43.70
52656;SHT85;35474;51.032;6.998;2022-08-02T12:38:22;27.94;43.72
52656;SHT85;35474;51.032;6.998;2022-08-02T12:40:48;28.19;43.65
52656;SHT85;35474;51.032;6.998;2022-08-02T12:43:16;28.36;43.42
52656;SHT85;35474;51.032;6.998;2022-08-02T12:45:46;29.62;40.75
52656;SHT85;35474;51.032;6.998;2022-08-02T12:48:31;29.60;41.06
52656;SHT85;35474;51.032;6.998;2022-08-02T12:54:45;30.92;38.18
52656;SHT85;35474;51.032;6.998;2022-08-02T12:57:15;30.59;38.29
52656;SHT85;35474;51.032;6.998;2022-08-02T12:59:51;30.55;38.35
52656;SHT85;35474;51.032;6.998;2022-08-02T13:02:18;30.36;39.09
52656;SHT85;35474;51.032;6.998;2022-08-02T13:04:46;29.53;40.73
52656;SHT85;35474;51.032;6.998;2022-08-02T13:07:15;29.59;40.69
52656;SHT85;35474;51.032;6.998;2022-08-02T13:09:43;29.90;39.75
52656;SHT85;35474;51.032;6.998;2022-08-02T13:12:11;29.93;39.85
52656;SHT85;35474;51.032;6.998;2022-08-02T13:14:38;31.03;38.43
52656;SHT85;35474;51.032;6.998;2022-08-02T13:17:07;31.45;37.44
52656;SHT85;35474;51.032;6.998;2022-08-02T13:19:35;31.30;36.89
52656;SHT85;35474;51.032;6.998;2022-08-02T13:22:03;30.53;38.18
52656;SHT85;35474;51.032;6.998;2022-08-02T13:24:30;30.73;38.00
52656;SHT85;35474;51.032;6.998;2022-08-02T13:27:17;30.53;38.27
52656;SHT85;35474;51.032;6.998;2022-08-02T13:29:46;30.36;38.58
52656;SHT85;35474;51.032;6.998;2022-08-02T13:32:13;32.08;36.17
52656;SHT85;35474;51.032;6.998;2022-08-02T13:34:41;31.50;36.88
52656;SHT85;35474;51.032;6.998;2022-08-02T13:37:08;30.69;37.92
52656;SHT85;35474;51.032;6.998;2022-08-02T13:39:34;30.79;37.18
52656;SHT85;35474;51.032;6.998;2022-08-02T13:42:01;31.38;36.07
52656;SHT85;35474;51.032;6.998;2022-08-02T13:44:28;31.23;36.57
52656;SHT85;35474;51.032;6.998;2022-08-02T13:46:55;30.68;37.78
52656;SHT85;35474;51.032;6.998;2022-08-02T13:49:22;30.82;37.45
52656;SHT85;35474;51.032;6.998;2022-08-02T13:52:09;30.34;37.78
52656;SHT85;35474;51.032;6.998;2022-08-02T13:54:36;30.76;37.27
52656;SHT85;35474;51.032;6.998;2022-08-02T13:57:03;30.25;38.05
52656;SHT85;35474;51.032;6.998;2022-08-02T13:59:30;31.26;36.35
52656;SHT85;35474;51.032;6.998;2022-08-02T14:02:16;30.87;36.53
52656;SHT85;35474;51.032;6.998;2022-08-02T14:04:44;31.58;35.29
52656;SHT85;35474;51.032;6.998;2022-08-02T14:07:10;33.00;33.12
52656;SHT85;35474;51.032;6.998;2022-08-02T14:09:37;32.52;33.34
52656;SHT85;35474;51.032;6.998;2022-08-02T14:12:05;31.99;34.44
52656;SHT85;35474;51.032;6.998;2022-08-02T14:14:35;31.67;35.16
52656;SHT85;35474;51.032;6.998;2022-08-02T14:17:01;31.02;35.95
52656;SHT85;35474;51.032;6.998;2022-08-02T14:19:28;31.04;36.28
52656;SHT85;35474;51.032;6.998;2022-08-02T14:21:54;31.21;35.94
52656;SHT85;35474;51.032;6.998;2022-08-02T14:24:41;31.55;35.82
52656;SHT85;35474;51.032;6.998;2022-08-02T14:27:08;32.20;35.12
52656;SHT85;35474;51.032;6.998;2022-08-02T14:29:35;32.08;35.08
52656;SHT85;35474;51.032;6.998;2022-08-02T14:32:02;32.10;35.32
52656;SHT85;35474;51.032;6.998;2022-08-02T14:34:28;31.75;36.23
52656;SHT85;35474;51.032;6.998;2022-08-02T14:36:55;31.97;35.61
52656;SHT85;35474;51.032;6.998;2022-08-02T14:39:22;31.04;37.33
52656;SHT85;35474;51.032;6.998;2022-08-02T14:41:49;30.42;38.01
52656;SHT85;35474;51.032;6.998;2022-08-02T14:44:26;30.08;39.21
52656;SHT85;35474;51.032;6.998;2022-08-02T14:46:53;30.04;39.18
52656;SHT85;35474;51.032;6.998;2022-08-02T14:49:21;31.02;37.78
52656;SHT85;35474;51.032;6.998;2022-08-02T14:51:51;31.67;36.63
52656;SHT85;35474;51.032;6.998;2022-08-02T14:54:22;32.15;35.88
52656;SHT85;35474;51.032;6.998;2022-08-02T14:57:00;32.45;35.13
52656;SHT85;35474;51.032;6.998;2022-08-02T14:59:29;32.31;35.07
52656;SHT85;35474;51.032;6.998;2022-08-02T15:01:56;31.35;35.77
52656;SHT85;35474;51.032;6.998;2022-08-02T15:04:24;31.60;35.12
52656;SHT85;35474;51.032;6.998;2022-08-02T15:06:51;31.98;35.56
52656;SHT85;35474;51.032;6.998;2022-08-02T15:09:18;32.87;33.76
52656;SHT85;35474;51.032;6.998;2022-08-02T15:11:45;31.75;35.41
52656;SHT85;35474;51.032;6.998;2022-08-02T15:14:18;32.72;34.11
52656;SHT85;35474;51.032;6.998;2022-08-02T15:16:54;32.26;34.63
52656;SHT85;35474;51.032;6.998;2022-08-02T15:19:23;32.01;35.01
52656;SHT85;35474;51.032;6.998;2022-08-02T15:22:11;31.47;35.71
52656;SHT85;35474;51.032;6.998;2022-08-02T15:24:42;31.19;36.33
52656;SHT85;35474;51.032;6.998;2022-08-02T15:27:10;31.38;35.74
52656;SHT85;35474;51.032;6.998;2022-08-02T15:29:39;31.16;35.99
52656;SHT85;35474;51.032;6.998;2022-08-02T15:32:06;30.68;36.93
52656;SHT85;35474;51.032;6.998;2022-08-02T15:34:33;31.30;35.99
52656;SHT85;35474;51.032;6.998;2022-08-02T15:36:59;31.03;36.59
52656;SHT85;35474;51.032;6.998;2022-08-02T15:39:26;31.44;36.32
52656;SHT85;35474;51.032;6.998;2022-08-02T15:41:52;31.84;35.67
52656;SHT85;35474;51.032;6.998;2022-08-02T15:44:19;30.99;36.75
52656;SHT85;35474;51.032;6.998;2022-08-02T15:46:45;30.89;37.58
52656;SHT85;35474;51.032;6.998;2022-08-02T15:49:12;31.38;36.70
52656;SHT85;35474;51.032;6.998;2022-08-02T15:51:39;30.59;37.69
52656;SHT85;35474;51.032;6.998;2022-08-02T15:54:05;31.62;36.22
52656;SHT85;35474;51.032;6.998;2022-08-02T15:56:32;31.85;35.79
52656;SHT85;35474;51.032;6.998;2022-08-02T15:58:59;31.97;35.56
52656;SHT85;35474;51.032;6.998;2022-08-02T16:01:25;31.75;35.66
52656;SHT85;35474;51.032;6.998;2022-08-02T16:04:04;31.24;36.81
52656;SHT85;35474;51.032;6.998;2022-08-02T16:06:31;31.04;36.74
52656;SHT85;35474;51.032;6.998;2022-08-02T16:08:58;31.37;36.85
52656;SHT85;35474;51.032;6.998;2022-08-02T16:11:24;31.68;36.06
52656;SHT85;35474;51.032;6.998;2022-08-02T16:13:51;32.05;35.78
52656;SHT85;35474;51.032;6.998;2022-08-02T16:16:27;31.03;37.03
52656;SHT85;35474;51.032;6.998;2022-08-02T16:18:56;30.66;37.84
52656;SHT85;35474;51.032;6.998;2022-08-02T16:21:23;30.28;38.04
52656;SHT85;35474;51.032;6.998;2022-08-02T16:23:51;30.38;38.17
52656;SHT85;35474;51.032;6.998;2022-08-02T16:26:27;31.00;37.23
52656;SHT85;35474;51.032;6.998;2022-08-02T16:28:55;31.42;36.69
52656;SHT85;35474;51.032;6.998;2022-08-02T16:31:22;31.82;36.27
52656;SHT85;35474;51.032;6.998;2022-08-02T16:33:49;31.06;37.19
52656;SHT85;35474;51.032;6.998;2022-08-02T16:36:21;30.87;37.12